createdAt,value
2022-10-24T00:01:00.219Z,91.00
2022-10-24T00:03:42.738Z,80.30
2022-10-24T00:06:15.620Z,78.70
2022-10-24T00:08:49.149Z,76.00
2022-10-24T00:11:24.326Z,91.20
2022-10-24T00:13:59.638Z,87.20
2022-10-24T00:16:35.191Z,81.20
2022-10-24T00:19:08.878Z,75.50
2022-10-24T00:21:42.606Z,84.30
2022-10-24T00:24:17.451Z,85.30
2022-10-24T00:26:53.272Z,96.10
2022-10-24T00:29:26.140Z,98.50
2022-10-24T00:31:59.159Z,95.40
2022-10-24T00:34:33.087Z,102.00
2022-10-24T00:37:08.374Z,110.00
2022-10-24T00:39:40.544Z,117.10
2022-10-24T00:42:14.908Z,109.00
2022-10-24T00:44:56.084Z,101.60
2022-10-24T00:47:30.501Z,103.10
2022-10-24T00:50:07.770Z,132.80
2022-10-24T00:52:42.146Z,165.90
2022-10-24T00:55:16.550Z,166.00
2022-10-24T00:57:52.641Z,139.60
2022-10-24T01:00:35.851Z,145.80
2022-10-24T01:03:09.778Z,133.10
2022-10-24T01:05:50.577Z,132.30
2022-10-24T01:08:32.570Z,130.70
2022-10-24T01:11:12.619Z,137.80
2022-10-24T01:13:51.788Z,134.90
2022-10-24T01:16:30.591Z,136.20
2022-10-24T01:19:08.995Z,133.90
2022-10-24T01:21:44.123Z,130.10
2022-10-24T01:24:36.682Z,130.40
2022-10-24T01:27:18.768Z,124.20
2022-10-24T01:29:56.162Z,108.10
2022-10-24T01:32:40.508Z,117.60
2022-10-24T01:35:24.052Z,112.50
2022-10-24T01:38:03.251Z,113.90
2022-10-24T01:40:50.917Z,114.20
2022-10-24T01:43:28.468Z,111.30
2022-10-24T01:46:06.802Z,107.10
2022-10-24T01:48:45.226Z,101.20
2022-10-24T01:51:18.527Z,108.10
2022-10-24T01:53:51.705Z,100.80
2022-10-24T01:56:23.649Z,103.50
2022-10-24T01:59:07.734Z,108.30
2022-10-24T02:01:45.810Z,104.00
2022-10-24T02:04:21.035Z,104.20
2022-10-24T02:06:55.287Z,100.90
2022-10-24T02:09:28.585Z,102.00
2022-10-24T02:12:06.050Z,100.20
2022-10-24T02:14:40.611Z,103.10
2022-10-24T02:17:16.113Z,108.10
2022-10-24T02:19:50.584Z,104.20
2022-10-24T02:22:28.390Z,102.80
2022-10-24T02:25:03.513Z,102.40
2022-10-24T02:27:39.407Z,99.80
2022-10-24T02:30:14.498Z,94.00
2022-10-24T02:32:49.326Z,89.20
2022-10-24T02:35:29.841Z,93.60
2022-10-24T02:38:06.347Z,90.30
2022-10-24T02:40:40.503Z,93.40
2022-10-24T02:43:13.613Z,91.40
2022-10-24T02:45:45.962Z,88.60
2022-10-24T02:48:23.182Z,87.70
2022-10-24T02:50:58.146Z,98.40
2022-10-24T02:53:31.724Z,101.90
2022-10-24T02:56:04.878Z,95.80
2022-10-24T02:58:38.439Z,88.20
2022-10-24T03:01:10.857Z,82.30
2022-10-24T03:03:46.994Z,79.40
2022-10-24T03:06:22.829Z,81.10
2022-10-24T03:08:58.657Z,88.50
2022-10-24T03:11:31.612Z,89.90
2022-10-24T03:14:05.811Z,88.50
2022-10-24T03:16:41.091Z,93.00
2022-10-24T03:19:14.115Z,86.20
2022-10-24T03:21:47.071Z,92.30
2022-10-24T03:24:31.346Z,85.90
2022-10-24T03:27:16.936Z,85.10
2022-10-24T03:29:49.277Z,85.20
2022-10-24T03:35:01.634Z,90.60
2022-10-24T03:37:34.288Z,67.80
2022-10-24T03:40:09.178Z,68.00
2022-10-24T03:42:43.849Z,63.60
2022-10-24T03:45:18.913Z,64.60
2022-10-24T03:47:51.604Z,70.30
2022-10-24T03:50:25.684Z,64.20
2022-10-24T03:52:58.827Z,59.00
2022-10-24T03:55:31.362Z,62.10
2022-10-24T03:58:04.108Z,61.50
2022-10-24T04:00:40.831Z,54.80
2022-10-24T04:03:13.514Z,61.00
2022-10-24T04:05:46.214Z,50.90
2022-10-24T04:08:19.725Z,49.20
2022-10-24T04:10:53.983Z,48.50
2022-10-24T04:13:26.472Z,48.00
2022-10-24T04:16:04.143Z,47.30
2022-10-24T04:18:37.090Z,48.50
2022-10-24T04:21:11.817Z,47.60
2022-10-24T04:24:35.284Z,47.50
2022-10-24T04:27:12.289Z,47.20
2022-10-24T04:30:11.562Z,48.40
2022-10-24T04:32:51.488Z,46.70
2022-10-24T04:35:27.201Z,46.70
2022-10-24T04:38:02.712Z,47.30
2022-10-24T04:41:02.325Z,47.10
2022-10-24T04:44:03.082Z,46.20
2022-10-24T04:53:25.976Z,47.30
2022-10-24T04:56:01.546Z,49.90
2022-10-24T04:58:38.549Z,48.50
2022-10-24T05:01:11.567Z,48.50
2022-10-24T05:03:45.945Z,48.60
2022-10-24T05:06:49.665Z,48.30
2022-10-24T05:09:47.896Z,52.60
2022-10-24T05:13:10.319Z,49.10
2022-10-24T05:16:58.715Z,46.90
2022-10-24T05:19:34.347Z,49.10
2022-10-24T05:22:15.803Z,51.20
2022-10-24T05:25:39.937Z,51.60
2022-10-24T05:28:40.805Z,60.30
2022-10-24T05:31:16.686Z,53.50
2022-10-24T05:34:20.119Z,48.90
2022-10-24T05:41:09.100Z,48.10
2022-10-24T05:43:46.247Z,45.90
2022-10-24T05:51:02.424Z,117.30
2022-10-24T05:53:37.741Z,85.10
2022-10-24T05:59:38.493Z,62.00
2022-10-24T06:03:02.814Z,64.40
2022-10-24T06:06:04.798Z,60.90
2022-10-24T06:08:48.748Z,44.50
2022-10-24T06:14:57.278Z,41.00
2022-10-24T06:28:51.648Z,29.90
2022-10-24T06:31:50.859Z,25.60
2022-10-24T06:34:57.625Z,21.80
2022-10-24T06:37:31.514Z,19.60
2022-10-24T06:40:30.281Z,18.70
2022-10-24T06:43:28.604Z,16.90
2022-10-24T06:56:42.796Z,14.60
2022-10-24T07:02:42.110Z,16.00
2022-10-24T07:05:20.041Z,16.80
2022-10-24T07:08:26.093Z,16.90
2022-10-24T07:11:06.701Z,14.90
2022-10-24T07:13:45.281Z,17.10
2022-10-24T07:16:24.849Z,12.90
2022-10-24T07:19:25.119Z,13.10
2022-10-24T07:21:57.965Z,11.20
2022-10-24T07:24:33.689Z,13.20
2022-10-24T07:27:10.661Z,11.50
2022-10-24T07:30:34.976Z,12.30
2022-10-24T07:33:30.916Z,11.90
2022-10-24T07:36:06.374Z,11.30
2022-10-24T07:38:38.362Z,13.10
2022-10-24T07:48:18.923Z,13.50
2022-10-24T07:51:18.735Z,11.90
2022-10-24T07:54:17.416Z,10.60
2022-10-24T07:56:52.244Z,13.30
2022-10-24T07:59:53.739Z,10.90
2022-10-24T08:02:29.332Z,10.80
2022-10-24T08:05:15.356Z,10.80
2022-10-24T08:08:00.595Z,10.80
2022-10-24T08:10:45.225Z,11.60
2022-10-24T08:13:20.193Z,11.50
2022-10-24T08:15:58.761Z,11.10
2022-10-24T08:18:39.564Z,10.50
2022-10-24T08:21:18.477Z,9.60
2022-10-24T08:23:59.848Z,11.30
2022-10-24T08:26:37.399Z,10.80
2022-10-24T08:29:12.452Z,11.00
2022-10-24T08:31:46.335Z,10.30
2022-10-24T08:34:18.152Z,15.20
2022-10-24T08:36:52.461Z,10.60
2022-10-24T08:39:27.685Z,11.30
2022-10-24T08:42:02.886Z,10.70
2022-10-24T08:44:41.143Z,11.20
2022-10-24T08:47:20.141Z,11.50
2022-10-24T08:50:23.288Z,11.00
2022-10-24T08:53:06.679Z,11.20
2022-10-24T08:55:51.008Z,11.00
2022-10-24T08:58:34.324Z,10.20
2022-10-24T09:01:18.318Z,10.00
2022-10-24T09:03:56.686Z,10.70
2022-10-24T09:06:34.580Z,12.60
2022-10-24T09:09:38.692Z,12.30
2022-10-24T09:12:40.136Z,11.30
2022-10-24T09:15:35.981Z,13.40
2022-10-24T09:18:17.702Z,11.10
2022-10-24T09:20:50.769Z,9.90
2022-10-24T09:23:31.042Z,8.80
2022-10-24T09:29:50.651Z,9.80
2022-10-24T09:32:51.094Z,9.70
2022-10-24T09:35:51.872Z,13.00
2022-10-24T09:38:36.632Z,9.90
2022-10-24T09:41:28.124Z,11.20
2022-10-24T09:44:06.647Z,11.00
2022-10-24T09:49:52.093Z,11.80
2022-10-24T09:52:34.951Z,10.60
2022-10-24T09:55:26.074Z,8.40
2022-10-24T10:01:09.445Z,8.30
2022-10-24T10:03:42.218Z,9.50
2022-10-24T10:06:44.656Z,9.30
2022-10-24T10:09:25.398Z,6.80
2022-10-24T10:12:02.821Z,7.90
2022-10-24T10:14:46.337Z,6.80
2022-10-24T10:17:26.805Z,8.20
2022-10-24T10:20:10.230Z,6.80
2022-10-24T10:22:47.762Z,8.60
2022-10-24T10:25:32.999Z,6.40
2022-10-24T10:28:06.709Z,6.30
2022-10-24T10:30:47.403Z,6.40
2022-10-24T10:34:08.721Z,6.20
2022-10-24T10:37:22.901Z,7.30
2022-10-24T10:40:10.956Z,7.90
2022-10-24T10:42:58.377Z,12.30
2022-10-24T10:46:12.479Z,6.90
2022-10-24T10:49:02.868Z,7.50
2022-10-24T10:51:47.556Z,7.00
2022-10-24T10:54:41.070Z,9.90
2022-10-24T10:57:28.886Z,9.40
2022-10-24T11:03:42.700Z,8.50
2022-10-24T11:06:38.613Z,7.60
2022-10-24T11:09:32.066Z,9.50
2022-10-24T11:12:40.359Z,6.90
2022-10-24T11:19:25.470Z,7.30
2022-10-24T11:22:00.110Z,7.00
2022-10-24T11:24:39.206Z,6.80
2022-10-24T11:27:14.426Z,7.70
2022-10-24T11:29:54.915Z,9.90
2022-10-24T11:32:36.576Z,10.40
2022-10-24T11:39:00.028Z,8.10
2022-10-24T11:42:14.893Z,9.20
2022-10-24T11:45:22.555Z,6.70
2022-10-24T11:48:05.243Z,11.30
2022-10-24T11:50:45.061Z,8.20
2022-10-24T11:53:47.960Z,8.60
2022-10-24T11:56:32.118Z,7.50
2022-10-24T11:59:16.175Z,6.70
2022-10-24T12:02:32.927Z,7.20
2022-10-24T12:09:38.651Z,6.00
2022-10-24T12:16:03.961Z,4.70
2022-10-24T12:26:23.622Z,6.70
2022-10-24T12:29:26.367Z,5.90
2022-10-24T12:32:30.619Z,5.90
2022-10-24T12:35:59.794Z,5.10
2022-10-24T12:43:11.805Z,6.90
2022-10-24T12:46:33.364Z,6.40
2022-10-24T12:49:30.868Z,6.50
2022-10-24T12:52:51.751Z,6.90
2022-10-24T12:56:31.126Z,7.80
2022-10-24T12:59:44.679Z,8.50
2022-10-24T13:03:33.241Z,6.90
2022-10-24T13:06:35.615Z,6.70
2022-10-24T13:09:50.253Z,9.00
2022-10-24T13:12:43.745Z,7.60
2022-10-24T13:15:54.530Z,8.70
2022-10-24T13:18:43.696Z,7.10
2022-10-24T13:22:05.902Z,7.80
2022-10-24T13:24:45.858Z,7.90
2022-10-24T13:28:05.525Z,8.40
2022-10-24T13:38:28.662Z,8.20
2022-10-24T13:41:05.591Z,8.50
2022-10-24T13:43:50.612Z,7.10
2022-10-24T13:47:40.625Z,12.50
2022-10-24T13:51:24.749Z,10.60
2022-10-24T13:54:56.794Z,10.60
2022-10-24T13:58:04.229Z,9.70
2022-10-24T14:04:35.399Z,13.00
2022-10-24T14:07:07.355Z,13.10
2022-10-24T14:10:11.043Z,7.10
2022-10-24T14:12:44.652Z,8.40
2022-10-24T14:15:23.973Z,8.30
2022-10-24T14:18:29.975Z,7.60
2022-10-24T14:21:49.485Z,7.90
2022-10-24T14:24:27.724Z,12.20
2022-10-24T14:27:02.547Z,8.00
2022-10-24T14:30:03.942Z,10.10
2022-10-24T14:32:34.590Z,9.40
2022-10-24T14:35:34.238Z,13.70
2022-10-24T14:39:20.970Z,12.10
2022-10-24T14:41:55.080Z,9.20
2022-10-24T14:44:37.342Z,11.20
2022-10-24T14:47:32.017Z,24.60
2022-10-24T14:50:03.441Z,9.60
2022-10-24T14:52:39.824Z,9.20
2022-10-24T14:55:46.421Z,11.10
2022-10-24T14:58:39.336Z,12.40
2022-10-24T15:01:47.039Z,11.60
2022-10-24T15:05:05.973Z,16.70
2022-10-24T15:07:57.303Z,30.50
2022-10-24T15:11:17.071Z,22.60
2022-10-24T15:14:05.742Z,13.70
2022-10-24T15:16:44.937Z,24.80
2022-10-24T15:19:41.817Z,15.60
2022-10-24T15:25:29.867Z,20.80
2022-10-24T15:28:00.733Z,23.80
2022-10-24T15:30:42.068Z,18.00
2022-10-24T15:33:11.741Z,17.40
2022-10-24T15:35:45.161Z,18.40
2022-10-24T15:38:43.686Z,19.40
2022-10-24T15:41:39.114Z,18.60
2022-10-24T15:44:58.441Z,22.50
2022-10-24T15:47:33.680Z,16.70
2022-10-24T15:50:39.826Z,19.80
2022-10-24T15:53:17.850Z,20.70
2022-10-24T15:56:39.303Z,29.30
2022-10-24T15:59:37.685Z,25.70
2022-10-24T16:02:33.199Z,18.90
2022-10-24T16:05:15.635Z,21.30
2022-10-24T16:08:11.900Z,23.40
2022-10-24T16:10:52.424Z,18.40
2022-10-24T16:13:47.184Z,19.10
2022-10-24T16:16:43.818Z,26.40
2022-10-24T16:19:47.120Z,22.60
2022-10-24T16:23:38.027Z,71.40
2022-10-24T16:26:13.590Z,67.30
2022-10-24T16:29:10.417Z,36.80
2022-10-24T16:31:45.695Z,31.90
2022-10-24T16:34:26.694Z,27.40
2022-10-24T16:37:25.079Z,38.60
2022-10-24T16:40:02.470Z,43.20
2022-10-24T16:42:33.223Z,39.10
2022-10-24T16:45:38.905Z,55.50
2022-10-24T16:48:16.122Z,41.50
2022-10-24T16:51:16.797Z,28.50
2022-10-24T16:53:51.912Z,30.40
2022-10-24T16:56:49.701Z,24.00
2022-10-24T16:59:50.746Z,38.70
2022-10-24T17:02:45.633Z,30.50
2022-10-24T17:05:18.580Z,36.30
2022-10-24T17:08:19.468Z,47.50
2022-10-24T17:11:39.361Z,37.70
2022-10-24T17:17:34.906Z,47.30
2022-10-24T17:20:20.073Z,42.00
2022-10-24T17:26:35.943Z,43.90
2022-10-24T17:32:28.655Z,39.50
2022-10-24T17:38:38.122Z,31.70
2022-10-24T17:41:46.703Z,41.60
2022-10-24T17:44:28.139Z,45.70
2022-10-24T17:51:12.539Z,39.30
2022-10-24T17:54:06.776Z,42.70
2022-10-24T17:56:43.643Z,38.40
2022-10-24T18:00:04.997Z,37.70
2022-10-24T18:06:47.154Z,29.80
2022-10-24T18:10:09.273Z,26.80
2022-10-24T18:15:53.402Z,38.30
2022-10-24T18:18:31.502Z,37.50
2022-10-24T18:21:42.672Z,39.40
2022-10-24T18:24:11.450Z,50.40
2022-10-24T18:26:47.231Z,39.00
2022-10-24T18:36:50.696Z,42.90
2022-10-24T18:40:19.939Z,51.80
2022-10-24T18:42:59.553Z,43.20
2022-10-24T18:46:44.776Z,43.70
2022-10-24T18:53:22.207Z,50.40
2022-10-24T18:56:49.008Z,51.70
2022-10-24T18:59:25.132Z,32.80
2022-10-24T19:02:27.847Z,42.30
2022-10-24T19:05:14.386Z,33.80
2022-10-24T19:07:53.143Z,30.00
2022-10-24T19:11:36.100Z,30.50
2022-10-24T19:15:04.672Z,28.10
2022-10-24T19:17:39.586Z,30.60
2022-10-24T19:21:04.032Z,29.30
2022-10-24T19:24:30.480Z,37.00
2022-10-24T19:30:49.236Z,31.40
2022-10-24T19:33:46.682Z,28.90
2022-10-24T19:36:19.161Z,33.80
2022-10-24T19:39:00.121Z,27.70
2022-10-24T19:41:57.448Z,27.80
2022-10-24T19:44:57.781Z,28.00
2022-10-24T19:47:56.515Z,24.50
2022-10-24T19:50:52.768Z,22.00
2022-10-24T19:53:31.253Z,21.20
2022-10-24T19:56:34.815Z,21.50
2022-10-24T19:59:56.533Z,22.80
2022-10-24T20:02:34.870Z,21.90
2022-10-24T20:05:24.978Z,23.20
2022-10-24T20:07:55.330Z,22.70
2022-10-24T20:16:40.759Z,24.10
2022-10-24T20:19:45.326Z,25.50
2022-10-24T20:22:38.712Z,26.20
2022-10-24T20:25:56.302Z,28.20
2022-10-24T20:28:58.712Z,30.80
2022-10-24T20:34:57.478Z,32.40
2022-10-24T20:37:28.979Z,37.40
2022-10-24T20:40:02.555Z,34.80
2022-10-24T20:42:33.316Z,35.30
2022-10-24T20:45:06.707Z,36.50
2022-10-24T20:48:01.376Z,39.50
2022-10-24T20:50:33.989Z,43.70
2022-10-24T20:53:06.238Z,45.20
2022-10-24T20:55:44.783Z,46.70
2022-10-24T20:58:24.052Z,49.80
2022-10-24T21:00:52.499Z,48.20
2022-10-24T21:07:37.426Z,52.20
2022-10-24T21:10:38.839Z,54.60
2022-10-24T21:16:28.516Z,56.90
2022-10-24T21:19:03.957Z,65.80
2022-10-24T21:21:57.192Z,63.80
2022-10-24T21:24:27.788Z,75.70
2022-10-24T21:27:24.949Z,75.80
2022-10-24T21:29:54.870Z,71.00
2022-10-24T21:32:23.367Z,68.10
2022-10-24T21:35:23.505Z,66.40
2022-10-24T21:38:41.171Z,65.20
2022-10-24T21:44:55.717Z,65.70
2022-10-24T21:47:51.396Z,68.50
2022-10-24T21:50:20.943Z,69.80
2022-10-24T21:52:49.898Z,71.20
2022-10-24T21:55:20.733Z,70.70
2022-10-24T22:01:40.695Z,81.10
2022-10-24T22:05:02.743Z,86.10
2022-10-24T22:07:57.428Z,85.70
2022-10-24T22:10:33.037Z,90.80
2022-10-24T22:13:11.337Z,84.00
2022-10-24T22:15:46.683Z,83.20
2022-10-24T22:18:21.496Z,76.70
2022-10-24T22:20:58.185Z,80.70
2022-10-24T22:23:55.922Z,88.10
2022-10-24T22:26:33.984Z,86.30
2022-10-24T22:29:09.324Z,81.60
2022-10-24T22:32:01.253Z,79.00
2022-10-24T22:34:43.679Z,85.10
2022-10-24T22:37:45.688Z,76.20
2022-10-24T22:44:09.909Z,76.30
2022-10-24T22:47:24.059Z,65.20
2022-10-24T22:53:48.603Z,64.00
2022-10-24T22:56:49.638Z,61.80
2022-10-24T23:00:08.087Z,62.30
2022-10-24T23:02:51.655Z,61.60
2022-10-24T23:12:58.794Z,65.30
2022-10-24T23:15:41.457Z,73.00
2022-10-24T23:18:50.948Z,74.30
2022-10-24T23:21:52.761Z,74.50
2022-10-24T23:24:57.620Z,76.00
2022-10-24T23:27:44.531Z,75.10
2022-10-24T23:31:04.925Z,86.10
2022-10-24T23:34:09.211Z,83.40
2022-10-24T23:37:16.162Z,86.70
2022-10-24T23:39:56.663Z,88.20
2022-10-24T23:42:41.126Z,95.90
2022-10-24T23:48:55.328Z,77.30
2022-10-24T23:51:37.982Z,79.90
2022-10-24T23:54:14.619Z,76.60
